This is the latest recevied weather packets stored in our database for station/object VE1AIC-4. If no packets are shown the sender has not sent any weather packets the latest 10 day(s).
| Time | Temp. | Humidity | Pressure | Rain* | Wind** | Luminosity | Snow |
|---|---|---|---|---|---|---|---|
| 1777790444 | 5.56° C | 87% | 1011.6 hPa | 0 mm | - | 0 W/m² | - |
| 1777789298 | 6.11° C | 85% | 1012 hPa | 0 mm | - | 0 W/m² | - |
| 1777788677 | 6.11° C | 85% | 1011.9 hPa | 0 mm | - | 0 W/m² | - |
| 1777788029 | 6.11° C | 85% | 1012 hPa | 0 mm | - | 0 W/m² | - |
| 1777786849 | 6.11° C | 85% | 1012.1 hPa | 0 mm | - | 0 W/m² | - |
| 1777785662 | 6.67° C | 86% | 1012.3 hPa | 0 mm | - | 0 W/m² | - |
| 1777775460 | 6.67° C | 83% | 1013.2 hPa | 0 mm | - | 0 W/m² | - |
| 1777773022 | 7.22° C | 87% | 1013.8 hPa | 0 mm | - | 0 W/m² | - |
| 1777772454 | 6.67° C | 88% | 1013.9 hPa | 0 mm | - | 0 W/m² | - |
| 1777768218 | 6.67° C | 88% | 1013.4 hPa | 0 mm | - | 0 W/m² | - |
| 1777767658 | 6.67° C | 87% | 1013.2 hPa | 0 mm | - | 0 W/m² | - |
| 1777765831 | 9.44° C | 74% | 1012.7 hPa | 0 mm | - | 0 W/m² | - |
| 1777765240 | 10° C | 69% | 1012.5 hPa | 0 mm | - | 0 W/m² | - |
| 1777762235 | 11.11° C | 64% | 1012.1 hPa | 0 mm | - | 23 W/m² | - |
| 1777759227 | 14.44° C | 47% | 1011.4 hPa | 0 mm | - | 50 W/m² | - |
| 1777755042 | 15° C | 48% | 1011.3 hPa | 0 mm | - | 189 W/m² | - |
| 1777753245 | 15.56° C | 45% | 1011 hPa | 0 mm | - | 342 W/m² | - |
| 1777752035 | 16.11° C | 42% | 1011 hPa | 0 mm | - | 395 W/m² | - |
| 1777746735 | 14.44° C | 52% | 1011.1 hPa | 0 mm | - | 597 W/m² | - |
| 1777743635 | 15° C | 47% | 1011.3 hPa | 0 mm | - | 674 W/m² | - |
| 1777743066 | 15° C | 47% | 1011.1 hPa | 0 mm | - | 686 W/m² | - |
| 1777742457 | 15° C | 48% | 1011.2 hPa | 0 mm | - | 696 W/m² | - |
| 1777740064 | 13.89° C | 53% | 1011.2 hPa | 0 mm | - | 727 W/m² | - |
| 1777738860 | 13.89° C | 57% | 1011.1 hPa | 0 mm | - | 735 W/m² | - |
| 1777737621 | 13.89° C | 57% | 1011.1 hPa | 0 mm | - | 737 W/m² | - |
* Rain latest hour (hover to see other rain measurements)
** Current wind speed in m/s (hover to see current wind gust speed)